Time;durP1;ratioP1;P1;durP2;ratioP2;P2;SDS_P1;SDS_P2;PMS_P1;PMS_P2;Temp;Humidity;BMP_temperature;BMP_pressure;BME280_temperature;BME280_humidity;BME280_pressure;Samples;Min_cycle;Max_cycle;Signal;HPM_P1;HPM_P2
2021/10/27 00:01:24;;;;;;;7.65;2.50;;;11.80;99.90;;;;;;4979841;28;20308;-68
2021/10/27 00:03:52;;;;;;;7.00;2.20;;;11.90;99.90;;;;;;4961111;28;20023;-68
2021/10/27 00:06:20;;;;;;;5.40;2.03;;;11.80;99.90;;;;;;4978298;28;20026;-68
2021/10/27 00:08:52;;;;;;;3.95;2.05;;;11.90;99.90;;;;;;4978508;28;20018;-68
2021/10/27 00:11:19;;;;;;;8.65;2.67;;;11.80;99.90;;;;;;4961108;28;20397;-68
2021/10/27 00:13:46;;;;;;;7.40;3.13;;;11.80;99.90;;;;;;4978689;28;20411;-68
2021/10/27 00:16:14;;;;;;;7.10;2.45;;;11.80;99.90;;;;;;4978595;28;20023;-68
2021/10/27 00:18:41;;;;;;;8.00;2.60;;;11.80;99.90;;;;;;4978071;28;20021;-68
2021/10/27 00:21:08;;;;;;;5.95;2.38;;;11.80;99.90;;;;;;4960841;28;20026;-68
2021/10/27 00:23:36;;;;;;;9.80;3.85;;;11.80;99.90;;;;;;4978240;28;20037;-68
2021/10/27 00:26:03;;;;;;;8.90;2.78;;;11.80;99.90;;;;;;4979025;28;20023;-69
2021/10/27 00:28:31;;;;;;;8.05;3.10;;;11.80;99.90;;;;;;4978865;28;20297;-68
2021/10/27 00:30:58;;;;;;;7.50;3.00;;;11.70;99.90;;;;;;4961608;28;20031;-67
2021/10/27 00:33:25;;;;;;;9.45;2.75;;;11.70;99.90;;;;;;4978696;28;20105;-68
2021/10/27 00:35:53;;;;;;;6.15;2.70;;;11.70;99.90;;;;;;4978906;28;20305;-68
2021/10/27 00:38:21;;;;;;;10.27;3.33;;;11.70;99.90;;;;;;4978994;28;20057;-68
2021/10/27 00:40:48;;;;;;;9.57;3.20;;;11.70;99.90;;;;;;4978734;28;20034;-68
2021/10/27 00:43:16;;;;;;;8.85;4.22;;;11.70;99.90;;;;;;4978582;28;20030;-68
2021/10/27 00:45:44;;;;;;;7.93;3.35;;;11.70;99.90;;;;;;4978369;28;20034;-68
2021/10/27 00:48:11;;;;;;;8.95;3.80;;;11.70;99.90;;;;;;4977306;28;20031;-67
2021/10/27 00:50:39;;;;;;;9.38;4.82;;;11.70;99.90;;;;;;4960473;28;20077;-68
2021/10/27 00:53:07;;;;;;;6.05;3.30;;;11.80;99.90;;;;;;4977912;28;20022;-68
2021/10/27 00:55:35;;;;;;;8.05;3.53;;;11.80;99.90;;;;;;4960474;28;20025;-68
2021/10/27 00:58:04;;;;;;;7.63;3.80;;;11.80;99.90;;;;;;4978303;28;20102;-68
2021/10/27 01:00:35;;;;;;;9.75;4.60;;;11.80;99.90;;;;;;4978056;28;20351;-67
2021/10/27 01:03:03;;;;;;;8.77;3.80;;;11.80;99.90;;;;;;4977675;28;20031;-68
2021/10/27 01:05:32;;;;;;;9.82;4.05;;;11.70;99.90;;;;;;4977519;28;20029;-68
2021/10/27 01:08:00;;;;;;;11.15;4.28;;;11.70;99.90;;;;;;4978317;28;20023;-67
2021/10/27 01:10:28;;;;;;;14.88;4.95;;;11.70;99.90;;;;;;4978481;28;20043;-68
2021/10/27 01:12:55;;;;;;;8.05;4.80;;;11.70;99.90;;;;;;4978928;28;20030;-68
2021/10/27 01:15:23;;;;;;;8.45;4.93;;;11.70;99.90;;;;;;4978299;28;20082;-68
2021/10/27 01:17:52;;;;;;;11.07;4.50;;;11.70;99.90;;;;;;4978414;28;20023;-68
2021/10/27 01:20:19;;;;;;;8.85;5.20;;;11.70;99.90;;;;;;4978179;28;20427;-67
2021/10/27 01:22:48;;;;;;;9.35;4.07;;;11.70;99.90;;;;;;4961134;28;20030;-68
2021/10/27 01:25:15;;;;;;;11.05;5.85;;;11.70;99.90;;;;;;4978222;28;20339;-68
2021/10/27 01:27:47;;;;;;;9.00;5.05;;;11.70;99.90;;;;;;4978915;28;20026;-68
2021/10/27 01:30:20;;;;;;;10.30;5.40;;;11.70;99.90;;;;;;4977239;28;20027;-68
2021/10/27 01:32:49;;;;;;;10.20;5.38;;;11.70;99.90;;;;;;4977698;28;20031;-68
2021/10/27 01:35:17;;;;;;;15.13;6.43;;;11.70;99.90;;;;;;4977207;28;20023;-67
2021/10/27 01:37:46;;;;;;;11.75;6.00;;;11.70;99.90;;;;;;4977966;28;20030;-68
2021/10/27 01:40:18;;;;;;;8.20;5.65;;;11.80;99.90;;;;;;4977382;28;20050;-67
2021/10/27 01:42:46;;;;;;;11.75;5.25;;;11.80;99.90;;;;;;4977410;28;20450;-68
2021/10/27 01:45:14;;;;;;;10.80;5.25;;;11.80;99.90;;;;;;4977190;28;20416;-68
2021/10/27 01:47:43;;;;;;;14.25;5.85;;;11.80;99.90;;;;;;4977445;28;20033;-68
2021/10/27 01:50:12;;;;;;;13.02;6.68;;;11.80;99.90;;;;;;4977129;28;20367;-68
2021/10/27 01:52:39;;;;;;;13.45;6.47;;;11.80;99.90;;;;;;4977651;28;20056;-68
2021/10/27 01:55:08;;;;;;;15.98;7.57;;;11.80;99.90;;;;;;4978461;28;20023;-68
2021/10/27 01:57:35;;;;;;;11.57;6.32;;;11.80;99.90;;;;;;4960979;28;20115;-68
2021/10/27 02:00:06;;;;;;;17.70;6.78;;;11.80;99.90;;;;;;4977992;28;20030;-68
2021/10/27 02:02:34;;;;;;;14.48;6.13;;;11.80;99.90;;;;;;4981633;28;20031;-68
2021/10/27 02:05:01;;;;;;;12.45;6.30;;;11.90;99.90;;;;;;4981426;28;20328;-67
2021/10/27 02:07:29;;;;;;;19.50;6.80;;;11.80;99.90;;;;;;4982088;28;20022;-68
2021/10/27 02:09:57;;;;;;;13.30;6.28;;;11.80;99.90;;;;;;4981331;28;20031;-68
2021/10/27 02:12:25;;;;;;;16.05;7.57;;;11.90;99.90;;;;;;4980800;28;20031;-68
2021/10/27 02:14:53;;;;;;;12.90;6.30;;;11.80;99.90;;;;;;4980882;28;20023;-68
2021/10/27 02:17:22;;;;;;;14.90;6.53;;;11.90;99.90;;;;;;4980921;28;20297;-68
2021/10/27 02:19:49;;;;;;;15.55;7.13;;;11.90;99.90;;;;;;4980429;28;20050;-68
2021/10/27 02:22:17;;;;;;;15.68;7.20;;;11.90;99.90;;;;;;4963030;28;20027;-67
2021/10/27 02:24:44;;;;;;;12.75;5.75;;;11.90;99.90;;;;;;4980189;28;20019;-68
2021/10/27 02:27:13;;;;;;;12.90;6.13;;;11.90;99.90;;;;;;4980804;28;20030;-68
2021/10/27 02:29:41;;;;;;;16.50;6.15;;;11.90;99.90;;;;;;4980092;28;20027;-68
2021/10/27 02:32:09;;;;;;;12.07;6.03;;;11.90;99.90;;;;;;4980194;28;20034;-68
2021/10/27 02:34:36;;;;;;;13.77;6.43;;;11.90;99.90;;;;;;4980079;28;20023;-68
2021/10/27 02:37:04;;;;;;;12.07;5.07;;;11.90;99.90;;;;;;4981554;28;20316;-68
2021/10/27 02:39:31;;;;;;;11.60;5.40;;;12.00;99.90;;;;;;4980558;28;20039;-68
2021/10/27 02:41:59;;;;;;;13.13;4.97;;;12.00;99.90;;;;;;4980773;28;20081;-68
2021/10/27 02:44:27;;;;;;;10.98;4.95;;;12.00;99.90;;;;;;4980741;28;20061;-68
2021/10/27 02:46:54;;;;;;;10.23;5.07;;;12.00;99.90;;;;;;4981012;28;20038;-68
2021/10/27 02:49:22;;;;;;;8.82;4.40;;;12.00;99.90;;;;;;4963468;28;20363;-68
2021/10/27 02:51:50;;;;;;;11.48;4.82;;;12.00;99.90;;;;;;4981074;28;20027;-68
2021/10/27 02:54:17;;;;;;;8.52;4.38;;;12.00;99.90;;;;;;4980531;28;20415;-68
2021/10/27 02:56:44;;;;;;;10.70;4.93;;;12.10;99.90;;;;;;4979916;28;20026;-67
2021/10/27 02:59:12;;;;;;;8.43;4.55;;;12.10;99.90;;;;;;4980070;28;20023;-68
2021/10/27 03:01:39;;;;;;;9.40;5.43;;;12.10;99.90;;;;;;4979637;28;20022;-68
2021/10/27 03:04:09;;;;;;;11.48;5.40;;;12.10;99.90;;;;;;4979939;28;20027;-68
2021/10/27 03:06:37;;;;;;;9.57;4.70;;;12.10;99.90;;;;;;4979665;28;20105;-68
2021/10/27 03:09:04;;;;;;;13.07;5.07;;;12.10;99.90;;;;;;4962282;28;20030;-68
2021/10/27 03:11:31;;;;;;;8.63;5.03;;;12.10;99.90;;;;;;4979258;28;20022;-68
2021/10/27 03:13:59;;;;;;;10.38;4.70;;;12.10;99.90;;;;;;4979276;28;20134;-68
2021/10/27 03:16:27;;;;;;;7.22;5.07;;;12.00;99.90;;;;;;4979717;28;20110;-68
2021/10/27 03:18:54;;;;;;;9.75;4.78;;;12.00;99.90;;;;;;4980527;28;20019;-68
2021/10/27 03:21:23;;;;;;;10.55;5.07;;;12.00;99.90;;;;;;4980154;28;20077;-68
2021/10/27 03:23:51;;;;;;;9.48;5.07;;;12.00;99.90;;;;;;4980506;28;20031;-68
2021/10/27 03:26:19;;;;;;;12.60;5.93;;;12.00;99.90;;;;;;4980472;28;20027;-68
2021/10/27 03:28:47;;;;;;;8.60;5.07;;;12.00;99.90;;;;;;4980308;28;20031;-68
2021/10/27 03:31:16;;;;;;;11.15;5.20;;;12.10;99.90;;;;;;4979757;28;20035;-68
2021/10/27 03:33:45;;;;;;;8.43;5.53;;;12.10;99.90;;;;;;4962672;28;20023;-68
2021/10/27 03:36:13;;;;;;;10.70;5.90;;;12.10;99.90;;;;;;4979737;28;20101;-68
2021/10/27 03:38:41;;;;;;;10.05;5.53;;;12.10;99.90;;;;;;4978608;28;20042;-68
2021/10/27 03:41:09;;;;;;;8.57;5.07;;;12.20;99.90;;;;;;4978777;28;20034;-68
2021/10/27 03:43:36;;;;;;;10.38;4.82;;;12.20;99.90;;;;;;4978690;28;20034;-68
2021/10/27 03:46:05;;;;;;;7.35;4.55;;;12.20;99.90;;;;;;4978689;28;20026;-68
2021/10/27 03:48:33;;;;;;;11.18;5.40;;;12.30;99.90;;;;;;4978571;28;20431;-68
2021/10/27 03:51:00;;;;;;;10.75;5.38;;;12.20;99.90;;;;;;4961446;28;20038;-68
2021/10/27 03:53:28;;;;;;;12.07;4.18;;;12.30;99.90;;;;;;4961326;28;20319;-68
2021/10/27 03:55:55;;;;;;;10.38;4.97;;;12.20;99.90;;;;;;4961331;28;20446;-68
2021/10/27 03:58:23;;;;;;;6.85;4.13;;;12.30;99.90;;;;;;4978942;28;20023;-68
2021/10/27 04:00:50;;;;;;;9.20;4.68;;;12.20;99.90;;;;;;4978996;28;20023;-68
2021/10/27 04:03:25;;;;;;;11.38;4.25;;;12.20;99.90;;;;;;4979655;28;20110;-68
2021/10/27 04:05:52;;;;;;;9.18;4.25;;;12.20;99.90;;;;;;4979717;28;20026;-68
2021/10/27 04:08:20;;;;;;;8.60;4.00;;;12.30;99.90;;;;;;4979693;28;20022;-67
2021/10/27 04:10:48;;;;;;;15.93;4.65;;;12.30;99.90;;;;;;4979492;28;20050;-68
2021/10/27 04:13:17;;;;;;;8.45;4.35;;;12.30;99.90;;;;;;4979044;28;20021;-68
2021/10/27 04:15:45;;;;;;;11.88;5.10;;;12.30;99.90;;;;;;4979845;28;20364;-68
2021/10/27 04:18:13;;;;;;;12.23;5.28;;;12.30;99.90;;;;;;4978971;28;20305;-68
2021/10/27 04:20:41;;;;;;;9.02;4.57;;;12.40;99.90;;;;;;4961369;28;20326;-68
2021/10/27 04:23:09;;;;;;;8.68;4.50;;;12.40;99.90;;;;;;4977600;28;20019;-68
2021/10/27 04:25:37;;;;;;;9.68;4.57;;;12.40;99.90;;;;;;4978476;28;20018;-68
2021/10/27 04:28:05;;;;;;;7.88;4.07;;;12.40;99.90;;;;;;4978550;28;20029;-68
2021/10/27 04:30:33;;;;;;;8.70;4.32;;;12.50;99.90;;;;;;4978404;28;20422;-68
2021/10/27 04:33:01;;;;;;;6.95;4.25;;;12.40;99.90;;;;;;4978005;28;20026;-68
2021/10/27 04:35:30;;;;;;;8.05;4.72;;;12.40;99.90;;;;;;4977849;28;20023;-68
2021/10/27 04:37:57;;;;;;;8.40;5.00;;;12.40;99.90;;;;;;4977769;28;20030;-67
2021/10/27 04:40:25;;;;;;;10.13;5.32;;;12.40;99.90;;;;;;4977538;28;20050;-67
2021/10/27 04:42:53;;;;;;;10.48;5.07;;;12.40;99.90;;;;;;4978354;28;20323;-68
2021/10/27 04:45:21;;;;;;;8.52;4.70;;;12.30;99.90;;;;;;4961458;28;20023;-67
2021/10/27 04:47:49;;;;;;;11.10;4.53;;;12.40;99.90;;;;;;4978800;28;20411;-67
2021/10/27 04:50:16;;;;;;;8.20;5.25;;;12.40;99.90;;;;;;4978600;28;20031;-68
2021/10/27 04:52:44;;;;;;;8.00;5.10;;;12.40;99.90;;;;;;4961567;28;20031;-67
2021/10/27 04:55:11;;;;;;;8.57;4.75;;;12.40;99.90;;;;;;4978547;28;20023;-68
2021/10/27 04:57:39;;;;;;;8.02;4.45;;;12.40;99.90;;;;;;4979115;28;20015;-67
2021/10/27 05:00:07;;;;;;;9.30;4.40;;;12.50;99.90;;;;;;4979034;28;20403;-68
2021/10/27 05:02:34;;;;;;;7.47;4.95;;;12.50;99.90;;;;;;4961533;28;20031;-68
2021/10/27 05:05:02;;;;;;;8.57;4.85;;;12.50;99.90;;;;;;4978175;28;20023;-68
2021/10/27 05:07:29;;;;;;;11.43;5.15;;;12.50;99.90;;;;;;4977853;28;20110;-68
2021/10/27 05:09:57;;;;;;;9.52;5.65;;;12.50;99.90;;;;;;4977546;28;20030;-68
2021/10/27 05:12:24;;;;;;;10.10;4.75;;;12.50;99.90;;;;;;4977586;28;20416;-67
2021/10/27 05:14:52;;;;;;;8.07;4.78;;;12.50;99.90;;;;;;4977779;28;20037;-68
2021/10/27 05:17:20;;;;;;;8.20;4.40;;;12.50;99.90;;;;;;4977313;28;20027;-68
2021/10/27 05:19:48;;;;;;;7.88;4.40;;;12.50;99.90;;;;;;4977427;28;20022;-67
2021/10/27 05:22:17;;;;;;;9.57;5.00;;;12.50;99.90;;;;;;4977956;28;20106;-68
2021/10/27 05:24:45;;;;;;;6.30;3.75;;;12.50;99.90;;;;;;4977393;28;20324;-68
2021/10/27 05:27:14;;;;;;;5.90;4.13;;;12.50;99.90;;;;;;4978122;28;20122;-68
2021/10/27 05:29:42;;;;;;;11.52;5.45;;;12.50;99.90;;;;;;4960949;28;20086;-68
2021/10/27 05:32:09;;;;;;;7.95;4.28;;;12.50;99.90;;;;;;4960905;28;20085;-68
2021/10/27 05:34:38;;;;;;;8.27;4.78;;;12.50;99.90;;;;;;4978727;28;20102;-68
2021/10/27 05:37:08;;;;;;;8.07;4.63;;;12.40;99.90;;;;;;4981487;28;20034;-68
2021/10/27 05:39:35;;;;;;;8.95;4.47;;;12.40;99.90;;;;;;4961750;29;20051;-68
2021/10/27 05:42:04;;;;;;;9.55;5.28;;;12.40;99.90;;;;;;4963142;28;20423;-68
2021/10/27 05:44:31;;;;;;;10.40;5.00;;;12.30;99.90;;;;;;4963033;28;20130;-68
2021/10/27 05:46:59;;;;;;;8.85;4.90;;;12.30;99.90;;;;;;4962315;28;20110;-68
2021/10/27 05:51:58;;;;;;;8.52;5.10;;;12.30;99.90;;;;;;4961498;28;20336;-68
2021/10/27 05:57:12;;;;;;;10.10;4.97;;;12.20;99.90;;;;;;4962113;29;20026;-67
2021/10/27 05:59:40;;;;;;;8.48;4.75;;;12.20;99.90;;;;;;4961373;28;20346;-68
2021/10/27 06:02:08;;;;;;;7.72;5.40;;;12.20;99.90;;;;;;4961280;28;20027;-68
2021/10/27 06:04:36;;;;;;;8.63;5.53;;;12.20;99.90;;;;;;4961546;28;20396;-68
2021/10/27 06:07:04;;;;;;;8.65;4.50;;;12.20;99.90;;;;;;4961423;28;20027;-68
2021/10/27 06:09:31;;;;;;;13.10;5.97;;;12.20;99.90;;;;;;4961726;28;20029;-68
2021/10/27 06:12:03;;;;;;;10.52;5.43;;;12.20;99.90;;;;;;4962260;28;20037;-68
2021/10/27 06:14:33;;;;;;;11.27;6.30;;;12.20;99.90;;;;;;4961954;28;20034;-68
2021/10/27 06:17:01;;;;;;;12.40;5.88;;;12.20;99.90;;;;;;4960981;28;20095;-68
2021/10/27 06:19:28;;;;;;;10.57;5.50;;;12.20;99.90;;;;;;4960801;29;20019;-68
2021/10/27 06:21:57;;;;;;;10.63;5.40;;;12.20;99.90;;;;;;4962428;28;20054;-68
2021/10/27 06:24:25;;;;;;;12.27;5.60;;;12.20;99.90;;;;;;4961792;28;20380;-68
2021/10/27 06:26:53;;;;;;;10.40;5.53;;;12.20;99.90;;;;;;4961740;28;20098;-68
2021/10/27 06:29:23;;;;;;;8.82;5.13;;;12.20;99.90;;;;;;4961740;28;20027;-67
2021/10/27 06:32:01;;;;;;;12.90;5.65;;;12.20;99.90;;;;;;4961085;28;20027;-68
2021/10/27 06:34:34;;;;;;;10.98;6.40;;;12.20;99.90;;;;;;4961231;28;20016;-68
2021/10/27 06:48:05;;;;;;;6.97;4.80;;;12.30;99.90;;;;;;4979809;28;20073;-68
2021/10/27 06:50:32;;;;;;;12.30;5.90;;;12.30;99.90;;;;;;4979813;28;20097;-68
2021/10/27 06:53:01;;;;;;;7.55;4.53;;;12.30;99.90;;;;;;4980821;28;20091;-68
2021/10/27 06:55:32;;;;;;;8.55;4.95;;;12.30;99.90;;;;;;4980519;28;20081;-68
2021/10/27 06:58:01;;;;;;;12.27;5.32;;;12.40;99.90;;;;;;4980439;28;20021;-68
2021/10/27 07:17:05;;;;;;;14.07;5.63;;;12.70;99.90;;;;;;4979512;28;20026;-68
2021/10/27 07:19:33;;;;;;;12.50;5.30;;;12.70;99.90;;;;;;4979164;28;20026;-66
2021/10/27 07:22:00;;;;;;;12.57;6.03;;;12.80;99.90;;;;;;4979307;28;20089;-68
2021/10/27 07:24:29;;;;;;;9.82;4.60;;;12.80;99.90;;;;;;4979597;28;20045;-67
2021/10/27 07:27:01;;;;;;;8.68;4.50;;;12.90;99.90;;;;;;4978977;28;20034;-67
2021/10/27 07:29:31;;;;;;;9.40;5.20;;;12.90;99.90;;;;;;4978774;28;20027;-67
2021/10/27 07:32:35;;;;;;;7.05;4.15;;;13.00;99.90;;;;;;4961785;28;20077;-67
2021/10/27 07:40:36;;;;;;;9.88;4.55;;;13.20;99.90;;;;;;4979573;28;20395;-67
2021/10/27 07:43:11;;;;;;;9.90;3.63;;;13.20;99.90;;;;;;4980169;28;20026;-67
2021/10/27 07:45:40;;;;;;;8.18;4.10;;;13.30;99.90;;;;;;4979932;28;20379;-67
2021/10/27 07:48:08;;;;;;;9.68;4.20;;;13.30;99.90;;;;;;4980100;28;20114;-67
2021/10/27 07:50:38;;;;;;;5.53;3.67;;;13.30;99.90;;;;;;4980144;28;20053;-67
2021/10/27 07:53:08;;;;;;;6.63;3.83;;;13.40;99.90;;;;;;4979615;28;20508;-67
2021/10/27 07:55:41;;;;;;;8.35;3.40;;;13.40;99.90;;;;;;4978993;28;20034;-67
2021/10/27 07:58:17;;;;;;;10.55;3.95;;;13.50;99.90;;;;;;4977628;28;20058;-67
2021/10/27 08:00:47;;;;;;;10.25;3.35;;;13.50;99.90;;;;;;4978411;28;20027;-67
2021/10/27 08:03:15;;;;;;;9.27;3.65;;;13.50;99.90;;;;;;4961397;28;20018;-67
2021/10/27 08:05:43;;;;;;;8.50;3.70;;;13.60;99.90;;;;;;4978457;28;20411;-68
2021/10/27 08:11:00;;;;;;;8.63;3.47;;;13.60;99.90;;;;;;4969253;28;20066;-67
2021/10/27 08:13:28;;;;;;;6.75;2.40;;;13.70;99.90;;;;;;4979024;28;20364;-68
2021/10/27 08:15:57;;;;;;;5.90;2.63;;;13.70;99.90;;;;;;4978420;28;20034;-68
2021/10/27 08:18:24;;;;;;;4.05;2.90;;;13.80;99.90;;;;;;4961401;28;20022;-68
2021/10/27 08:20:51;;;;;;;7.90;2.92;;;13.80;99.90;;;;;;4979060;28;20105;-67
2021/10/27 08:23:44;;;;;;;5.78;2.55;;;13.80;99.90;;;;;;4961985;28;20095;-67
2021/10/27 08:26:17;;;;;;;3.53;2.13;;;13.80;99.90;;;;;;4979227;28;20023;-67
2021/10/27 08:28:55;;;;;;;5.10;2.63;;;13.80;99.90;;;;;;4979703;28;20030;-67
2021/10/27 08:31:35;;;;;;;4.53;1.90;;;13.80;99.90;;;;;;4978788;28;20054;-67
2021/10/27 08:34:07;;;;;;;3.58;2.05;;;13.80;99.90;;;;;;4979768;28;20023;-67
2021/10/27 08:36:35;;;;;;;6.03;2.35;;;13.90;99.90;;;;;;4978712;28;20046;-67
2021/10/27 08:39:04;;;;;;;4.45;1.90;;;13.90;99.90;;;;;;4978017;28;20050;-68
2021/10/27 08:41:39;;;;;;;4.82;1.70;;;13.90;99.90;;;;;;4978468;28;20081;-68
2021/10/27 08:44:07;;;;;;;3.78;1.80;;;13.90;99.90;;;;;;4978259;28;20105;-67
2021/10/27 08:46:35;;;;;;;3.45;1.33;;;14.00;99.90;;;;;;4978023;28;20442;-68
2021/10/27 08:49:07;;;;;;;5.45;2.25;;;14.00;99.90;;;;;;4977762;28;20034;-69
2021/10/27 08:51:36;;;;;;;4.50;1.80;;;14.10;99.90;;;;;;4977717;28;20061;-68
2021/10/27 08:54:07;;;;;;;2.65;1.50;;;14.20;99.90;;;;;;4977911;28;20419;-67
2021/10/27 08:56:38;;;;;;;2.92;1.70;;;14.20;99.90;;;;;;4960493;28;20331;-67
2021/10/27 08:59:22;;;;;;;3.30;1.10;;;14.30;99.90;;;;;;4978510;28;20030;-67
2021/10/27 09:02:16;;;;;;;4.13;1.85;;;14.40;99.90;;;;;;4978031;28;20027;-67
2021/10/27 10:04:07;;;;;;;2.78;0.90;;;15.30;99.90;;;;;;4943567;29;20118;-68
2021/10/27 10:06:46;;;;;;;3.17;1.10;;;15.30;99.90;;;;;;4942662;29;20326;-67
2021/10/27 10:09:14;;;;;;;3.13;1.63;;;15.30;99.90;;;;;;4942177;29;20028;-68
2021/10/27 10:11:43;;;;;;;5.18;1.30;;;15.40;99.90;;;;;;4941955;29;20408;-68
2021/10/27 10:14:13;;;;;;;3.08;1.20;;;15.40;99.90;;;;;;4942193;29;20443;-68
2021/10/27 10:16:47;;;;;;;7.10;1.63;;;15.40;99.90;;;;;;4941817;29;20027;-67
2021/10/27 10:19:19;;;;;;;8.52;1.30;;;15.40;99.90;;;;;;4941847;29;20035;-67
2021/10/27 10:21:49;;;;;;;7.20;1.52;;;15.40;99.90;;;;;;4941153;29;20114;-67
2021/10/27 10:24:29;;;;;;;3.47;0.98;;;15.40;99.90;;;;;;4941976;29;20111;-67
2021/10/27 10:27:07;;;;;;;3.72;1.00;;;15.50;99.90;;;;;;4942638;29;20023;-68
2021/10/27 10:29:39;;;;;;;5.68;1.00;;;15.50;99.90;;;;;;4942690;29;20028;-68
2021/10/27 10:32:30;;;;;;;5.07;1.08;;;15.60;99.90;;;;;;4942367;29;20055;-68
2021/10/27 10:35:19;;;;;;;2.97;1.10;;;15.60;99.90;;;;;;4942677;29;20047;-67
2021/10/27 10:37:54;;;;;;;2.63;1.20;;;15.70;99.90;;;;;;4942409;29;20038;-67
2021/10/27 10:41:00;;;;;;;;;;;15.70;99.90;;;;;;4974400;28;20133;-68
2021/10/27 10:44:01;;;;;;;2.65;1.17;;;15.80;99.90;;;;;;4980648;28;19905;-68
2021/10/27 11:27:37;;;;;;;5.38;1.00;;;16.30;99.90;;;;;;4980152;28;20111;-67
2021/10/27 11:39:09;;;;;;;9.32;1.77;;;16.30;99.90;;;;;;4978898;28;20073;-66
2021/10/27 11:41:46;;;;;;;;;;;16.30;99.90;;;;;;4961996;28;20420;-66
2021/10/27 11:44:48;;;;;;;4.10;0.90;;;16.30;99.90;;;;;;4978938;28;19993;-66
2021/10/27 11:47:47;;;;;;;4.18;1.00;;;16.40;99.90;;;;;;4978322;28;20042;-66
2021/10/27 11:50:18;;;;;;;2.97;0.90;;;16.40;99.90;;;;;;4978579;28;20051;-66
2021/10/27 11:52:53;;;;;;;3.50;1.38;;;16.40;99.90;;;;;;4979076;28;20042;-67
2021/10/27 11:55:23;;;;;;;5.88;1.75;;;16.40;99.90;;;;;;4979497;28;20412;-66
2021/10/27 11:57:53;;;;;;;2.78;0.80;;;16.40;99.90;;;;;;4979442;28;20107;-66
2021/10/27 12:00:38;;;;;;;4.60;1.13;;;16.30;99.90;;;;;;4979371;28;20073;-66
2021/10/27 12:03:14;;;;;;;4.50;0.93;;;16.30;99.90;;;;;;4979132;28;20118;-66
2021/10/27 12:05:50;;;;;;;3.75;0.90;;;16.20;99.90;;;;;;4979275;28;20027;-66
2021/10/27 12:19:15;;;;;;;;;;;16.00;99.90;;;;;;4978764;28;20023;-71
2021/10/27 12:22:03;;;;;;;5.13;2.55;;;16.00;99.90;;;;;;4978700;28;19906;-69
2021/10/27 12:24:37;;;;;;;8.55;2.60;;;16.00;99.90;;;;;;4978066;28;20027;-69
2021/10/27 12:27:37;;;;;;;2.33;1.17;;;16.10;99.90;;;;;;4978039;28;20023;-68
2021/10/27 12:30:08;;;;;;;2.80;0.80;;;16.00;99.90;;;;;;4978000;28;20030;-68
2021/10/27 12:32:55;;;;;;;26.25;10.40;;;16.10;99.90;;;;;;4977673;28;20411;-68
2021/10/27 12:35:27;;;;;;;5.68;1.67;;;16.10;99.90;;;;;;4978918;28;20424;-68
2021/10/27 12:38:17;;;;;;;8.18;1.48;;;16.20;99.90;;;;;;4978819;28;20026;-68
2021/10/27 12:40:47;;;;;;;3.78;1.58;;;16.20;99.90;;;;;;4978503;28;20074;-68
2021/10/27 12:43:22;;;;;;;4.85;1.15;;;16.20;99.90;;;;;;4979013;28;20100;-68
2021/10/27 12:45:55;;;;;;;4.82;0.80;;;16.20;99.90;;;;;;4978234;28;20026;-69
2021/10/27 12:48:38;;;;;;;3.83;0.90;;;16.20;99.90;;;;;;4978979;28;20026;-67
2021/10/27 12:51:11;;;;;;;6.30;1.65;;;16.20;99.90;;;;;;4979064;28;20023;-67
2021/10/27 12:53:40;;;;;;;3.25;0.70;;;16.20;99.90;;;;;;4978513;28;20050;-67
2021/10/27 12:56:23;;;;;;;2.13;0.80;;;16.20;99.90;;;;;;4978153;28;20026;-67
2021/10/27 12:59:02;;;;;;;5.47;1.50;;;16.20;99.90;;;;;;4977620;28;20360;-67
2021/10/27 13:01:38;;;;;;;6.00;1.00;;;16.30;99.90;;;;;;4978065;28;20031;-67
2021/10/27 13:04:28;;;;;;;4.20;1.52;;;16.30;99.90;;;;;;4978397;28;20420;-67
2021/10/27 13:07:03;;;;;;;6.00;0.93;;;16.30;99.90;;;;;;4978152;28;20035;-67
2021/10/27 13:12:43;;;;;;;3.13;0.88;;;16.40;99.90;;;;;;4977433;28;20099;-67
2021/10/27 13:18:12;;;;;;;2.43;0.83;;;16.60;99.90;;;;;;4978360;28;20041;-69
2021/10/27 13:29:30;;;;;;;3.88;1.10;;;16.80;99.90;;;;;;4919810;29;20095;-67
2021/10/27 13:32:17;;;;;;;5.10;1.58;;;17.00;99.90;;;;;;4978349;28;20057;-68
2021/10/27 13:34:47;;;;;;;4.28;1.27;;;17.00;99.90;;;;;;4978243;28;20023;-67
2021/10/27 13:37:15;;;;;;;4.00;0.73;;;16.90;99.90;;;;;;4960443;28;20031;-67
2021/10/27 13:39:43;;;;;;;3.72;1.23;;;16.90;99.90;;;;;;4977201;28;20043;-68
2021/10/27 13:42:21;;;;;;;3.10;1.20;;;16.90;99.90;;;;;;4977074;28;20037;-68
2021/10/27 13:45:03;;;;;;;5.80;1.33;;;16.80;99.90;;;;;;4977708;28;20030;-68
2021/10/27 13:47:44;;;;;;;5.63;1.55;;;16.90;99.90;;;;;;4976844;28;20037;-67
2021/10/27 13:58:45;;;;;;;3.80;1.13;;;17.10;99.90;;;;;;4980413;28;20033;-68
2021/10/27 14:06:48;;;;;;;5.45;1.20;;;17.50;99.90;;;;;;4981579;28;20038;-68
2021/10/27 14:20:14;;;;;;;;;;;17.40;99.90;;;;;;4981628;28;20490;-68
2021/10/27 15:20:23;;;;;;;4.88;2.13;;;15.40;99.90;;;;;;4979295;28;20038;-68
2021/10/27 15:30:59;;;;;;;4.65;1.90;;;15.20;99.90;;;;;;4980357;28;20026;-65
2021/10/27 15:34:01;;;;;;;5.22;2.22;;;15.10;99.90;;;;;;4979954;28;20066;-66
2021/10/27 15:44:25;;;;;;;3.13;1.80;;;14.80;99.90;;;;;;4979383;28;20091;-66
2021/10/27 15:52:25;;;;;;;19.20;8.85;;;14.60;99.90;;;;;;4978818;28;20326;-67
2021/10/27 15:54:52;;;;;;;5.72;2.33;;;14.50;99.90;;;;;;4978607;28;20039;-67
2021/10/27 15:57:20;;;;;;;35.30;15.23;;;14.40;99.90;;;;;;4979064;28;20027;-67
2021/10/27 15:59:50;;;;;;;7.10;3.67;;;14.40;99.90;;;;;;4979770;28;20299;-70
2021/10/27 16:02:19;;;;;;;4.78;2.08;;;14.30;99.90;;;;;;4978478;28;20415;-65
2021/10/27 16:04:47;;;;;;;4.15;1.67;;;14.30;99.90;;;;;;4978293;28;20062;-66
2021/10/27 16:07:16;;;;;;;2.55;1.30;;;14.20;99.90;;;;;;4979343;28;20041;-66
2021/10/27 16:09:48;;;;;;;4.05;1.58;;;14.20;99.90;;;;;;4979295;28;20081;-67
2021/10/27 16:12:22;;;;;;;3.63;1.20;;;14.10;99.90;;;;;;4979285;28;20069;-66
2021/10/27 16:14:50;;;;;;;8.93;1.63;;;14.10;99.90;;;;;;4979108;28;20019;-66
2021/10/27 16:17:17;;;;;;;5.95;2.03;;;14.00;99.90;;;;;;4979287;28;20106;-67
2021/10/27 16:19:45;;;;;;;4.93;2.13;;;14.00;99.90;;;;;;4978583;28;20023;-66
2021/10/27 16:22:13;;;;;;;5.60;2.47;;;14.00;99.90;;;;;;4979083;28;20042;-67
2021/10/27 16:24:40;;;;;;;7.97;3.35;;;14.00;99.90;;;;;;4979004;28;20035;-67
2021/10/27 16:27:09;;;;;;;3.90;2.15;;;14.00;99.90;;;;;;4978788;28;20023;-67
2021/10/27 16:29:36;;;;;;;3.30;1.65;;;14.00;99.90;;;;;;4978191;28;20102;-67
2021/10/27 16:32:04;;;;;;;4.40;2.10;;;14.00;99.90;;;;;;4977971;28;20101;-67
2021/10/27 16:34:31;;;;;;;7.50;2.05;;;14.00;99.90;;;;;;4977962;28;20019;-66
2021/10/27 16:36:59;;;;;;;3.92;1.60;;;13.90;99.90;;;;;;4978181;28;20027;-67
2021/10/27 16:39:26;;;;;;;4.25;2.17;;;13.90;99.90;;;;;;4978017;28;20051;-67
2021/10/27 16:41:54;;;;;;;5.50;1.77;;;13.90;99.90;;;;;;4960653;28;20110;-67
2021/10/27 16:44:22;;;;;;;5.43;1.52;;;13.80;99.90;;;;;;4977856;28;20140;-67
2021/10/27 16:46:50;;;;;;;3.00;1.60;;;13.80;99.90;;;;;;4977628;28;20038;-67
2021/10/27 16:49:18;;;;;;;4.38;1.38;;;13.70;99.90;;;;;;4961841;28;20097;-67
2021/10/27 16:51:45;;;;;;;3.35;1.70;;;13.70;99.90;;;;;;4979106;28;20037;-67
2021/10/27 16:54:13;;;;;;;4.20;1.85;;;13.70;99.90;;;;;;4978845;28;20019;-66
2021/10/27 16:56:41;;;;;;;8.65;3.72;;;13.60;99.90;;;;;;4961897;28;20368;-67
2021/10/27 16:59:08;;;;;;;9.70;2.80;;;13.60;99.90;;;;;;4979017;28;20057;-67
2021/10/27 17:01:35;;;;;;;5.32;2.03;;;13.60;99.90;;;;;;4978923;28;20101;-67
2021/10/27 17:04:03;;;;;;;6.32;1.23;;;13.40;99.90;;;;;;4978493;28;20331;-67
2021/10/27 17:06:33;;;;;;;6.47;1.77;;;13.40;99.90;;;;;;4978442;28;20022;-67
2021/10/27 17:09:02;;;;;;;5.30;1.58;;;13.30;99.90;;;;;;4977752;28;20057;-67
2021/10/27 17:11:30;;;;;;;7.47;1.20;;;13.20;99.90;;;;;;4977932;28;20050;-66
2021/10/27 17:13:59;;;;;;;3.65;1.50;;;13.20;99.90;;;;;;4977859;28;20018;-66
2021/10/27 17:16:28;;;;;;;6.93;1.60;;;13.10;99.90;;;;;;4977687;28;20027;-67
2021/10/27 17:18:56;;;;;;;7.38;2.50;;;13.10;99.90;;;;;;4977902;28;20031;-67
2021/10/27 17:21:24;;;;;;;3.47;1.75;;;12.90;99.90;;;;;;4977659;28;20359;-67
2021/10/27 17:23:58;;;;;;;3.70;1.50;;;12.90;99.90;;;;;;4961167;28;20031;-67
2021/10/27 17:26:28;;;;;;;10.07;1.85;;;12.80;99.90;;;;;;4977260;28;20031;-67
2021/10/27 17:28:56;;;;;;;5.45;2.08;;;12.80;99.90;;;;;;4977433;28;20031;-67
2021/10/27 17:31:24;;;;;;;7.25;2.13;;;12.80;99.90;;;;;;4979736;28;20038;-67
2021/10/27 17:33:51;;;;;;;4.25;2.47;;;12.70;99.90;;;;;;4982282;28;20045;-67
2021/10/27 17:36:22;;;;;;;5.93;2.42;;;12.80;99.90;;;;;;4982584;28;20019;-67
2021/10/27 17:38:51;;;;;;;6.95;3.40;;;12.70;99.90;;;;;;4982080;28;20346;-67
2021/10/27 17:41:20;;;;;;;7.65;2.60;;;12.70;99.90;;;;;;4981884;28;20106;-67
2021/10/27 17:43:49;;;;;;;5.68;2.30;;;12.60;99.90;;;;;;4982014;28;20109;-67